KITH/ITH METAR and TAF weather

Enter ICAO airport designator
Station Type Date Time Source
KITH METAR 2021/05/14 12:56 UTC NOAA

KITH 141256Z 32003KT 10SM CLR 13/02 A3029 RMK AO2 SLP260 T01330022 PNO $


Station Type Date Time Source
KITH Decoded METAR 2021/05/14 12:56 UTC NOAA

Ithaca, Ithaca Tompkins Regional Airport, NY, United States (KITH) 42-29-27N 076-27-30W
May 14, 2021 - 08:56 AM EDT / 2021.05.14 1256 UTC
Wind: from the NW (320 degrees) at 3 MPH (3 KT):0
Visibility: 10 mile(s):0
Sky conditions: clear
Temperature: 55.9 F (13.3 C)
Dew Point: 36.0 F (2.2 C)
Relative Humidity: 46%
Pressure (altimeter): 30.29 in. Hg (1025 hPa)
ob: KITH 141256Z 32003KT 10SM CLR 13/02 A3029 RMK AO2 SLP260 T01330022 PNO
cycle: 13

Station Type Date Time Source
KITH TAF 2021/05/14 12:22 UTC NOAA

TAF KITH 141120Z 1412/1512 VRB03KT P6SM SKC
FM141500 31007KT P6SM FEW070
FM150000 VRB03KT P6SM SKC

Example: see airport list